Terminal Aerodrome Forecast
Issued by NWS Sioux Falls, SD

Home | Current Version | Previous Version | Text Only | Print | Product List | Glossary On
Versions: 1 2 3 4 5 6 7 8 9 10 11 12 13 14 15 16 17 18 19 20 21 22 23 24
860
FTUS43 KFSD 241138
TAFHON
TAF
KHON 241138Z 2412/2512 VRB03KT 6SM SHRA OVC008
     FM241300 29005KT 4SM SHRA OVC003
     FM241700 29007KT 3SM SHRA OVC008
     FM242000 32098KT 6SM SHRA OVC008
     FM250000 33010KT P6SM OVC008=

USA.gov is the U.S. government's official web portal to all federal, state and local government web resources and services.